Time;durP1;ratioP1;P1;durP2;ratioP2;P2;SDS_P1;SDS_P2;PMS_P1;PMS_P2;Temp;Humidity;BMP_temperature;BMP_pressure;BME280_temperature;BME280_humidity;BME280_pressure;Samples;Min_cycle;Max_cycle;Signal;HPM_P1;HPM_P2
2023/09/08 00:02:27;;;;;;;7.87;7.03;;;20.70;99.90;;;;;;5033236;28;20435;-73
2023/09/08 00:04:56;;;;;;;7.80;7.10;;;20.70;99.90;;;;;;5033097;28;21053;-73
2023/09/08 00:07:24;;;;;;;7.90;7.20;;;20.60;99.90;;;;;;5033316;28;20434;-73
2023/09/08 00:09:54;;;;;;;7.60;7.00;;;20.50;99.90;;;;;;5033979;28;20435;-73
2023/09/08 00:12:22;;;;;;;7.10;6.50;;;20.50;99.90;;;;;;5033733;28;20497;-73
2023/09/08 00:14:50;;;;;;;8.07;7.30;;;20.50;99.90;;;;;;5033434;28;20490;-73
2023/09/08 00:17:18;;;;;;;7.80;7.20;;;20.40;99.90;;;;;;5033220;28;20797;-73
2023/09/08 00:19:46;;;;;;;7.43;6.87;;;20.40;99.90;;;;;;5033211;28;20471;-73
2023/09/08 00:22:14;;;;;;;8.13;7.43;;;20.30;99.90;;;;;;5032533;28;20512;-73
2023/09/08 00:24:42;;;;;;;8.40;7.70;;;20.30;99.90;;;;;;5033073;28;20981;-73
2023/09/08 00:27:12;;;;;;;7.50;6.90;;;20.30;99.90;;;;;;5033155;28;20444;-73
2023/09/08 00:29:40;;;;;;;8.10;7.47;;;20.30;99.90;;;;;;5033118;28;20872;-73
2023/09/08 00:32:08;;;;;;;7.40;6.80;;;20.20;99.90;;;;;;5035940;28;20880;-73
2023/09/08 00:34:40;;;;;;;7.50;6.80;;;20.20;99.90;;;;;;5035684;28;20849;-73
2023/09/08 00:37:09;;;;;;;7.57;6.87;;;20.20;99.90;;;;;;5037524;28;20423;-73
2023/09/08 00:39:38;;;;;;;7.63;6.97;;;20.20;99.90;;;;;;5035573;28;20792;-73
2023/09/08 00:42:07;;;;;;;8.00;7.40;;;20.20;99.90;;;;;;5037005;28;20454;-73
2023/09/08 00:44:37;;;;;;;8.37;7.57;;;20.10;99.90;;;;;;5035519;28;20478;-73
2023/09/08 00:47:06;;;;;;;8.17;7.43;;;20.10;99.90;;;;;;5035461;28;20496;-73
2023/09/08 00:49:34;;;;;;;7.97;7.27;;;20.10;99.90;;;;;;5035517;28;20450;-73
2023/09/08 00:52:03;;;;;;;8.37;7.70;;;20.10;99.90;;;;;;5037036;28;20522;-73
2023/09/08 00:54:31;;;;;;;8.13;7.43;;;20.00;99.90;;;;;;5035542;28;20520;-73
2023/09/08 00:57:03;;;;;;;8.40;7.60;;;20.00;99.90;;;;;;5035896;28;20531;-73
2023/09/08 00:59:33;;;;;;;8.50;7.80;;;19.90;99.90;;;;;;5035304;28;20517;-73
2023/09/08 01:02:03;;;;;;;8.37;7.67;;;19.90;99.90;;;;;;5036864;28;20419;-73
2023/09/08 01:04:33;;;;;;;8.37;7.67;;;19.80;99.90;;;;;;5035117;28;20478;-73
2023/09/08 01:07:03;;;;;;;8.93;8.13;;;19.80;99.90;;;;;;5036376;28;20532;-73
2023/09/08 01:09:31;;;;;;;8.77;8.13;;;19.80;99.90;;;;;;5035046;28;20965;-73
2023/09/08 01:12:01;;;;;;;8.50;7.80;;;19.70;99.90;;;;;;5035089;28;20443;-73
2023/09/08 01:14:30;;;;;;;9.60;8.80;;;19.70;99.90;;;;;;5034953;28;20663;-73
2023/09/08 01:16:58;;;;;;;8.20;7.50;;;19.60;99.90;;;;;;5036376;28;20439;-73
2023/09/08 01:19:28;;;;;;;8.53;7.83;;;19.60;99.90;;;;;;5034679;28;20482;-73
2023/09/08 01:22:20;;;;;;;9.20;8.50;;;19.60;99.90;;;;;;5036694;28;20431;-73
2023/09/08 01:25:24;;;;;;;7.97;7.37;;;19.60;99.90;;;;;;5035903;28;20549;-73
2023/09/08 01:27:53;;;;;;;8.40;7.70;;;19.50;99.90;;;;;;5021816;28;20538;-73
2023/09/08 01:30:24;;;;;;;8.27;7.60;;;19.50;99.90;;;;;;5036074;28;20458;-73
2023/09/08 01:32:53;;;;;;;8.67;7.97;;;19.40;99.90;;;;;;5035935;28;20471;-73
2023/09/08 01:35:21;;;;;;;9.47;8.67;;;19.40;99.90;;;;;;5036095;28;20438;-73
2023/09/08 01:37:50;;;;;;;9.27;8.47;;;19.40;99.90;;;;;;5034450;28;20454;-73
2023/09/08 01:40:19;;;;;;;8.00;7.40;;;19.40;99.90;;;;;;5034176;28;20467;-73
2023/09/08 01:42:49;;;;;;;8.67;7.87;;;19.30;99.90;;;;;;5035899;28;20431;-73
2023/09/08 01:45:18;;;;;;;8.57;7.87;;;19.30;99.90;;;;;;5034714;28;20474;-73
2023/09/08 01:47:46;;;;;;;9.20;8.30;;;19.20;99.90;;;;;;5036590;28;20431;-73
2023/09/08 01:50:21;;;;;;;8.90;8.10;;;19.20;99.90;;;;;;5036494;28;20439;-73
2023/09/08 01:52:49;;;;;;;8.67;7.97;;;19.20;99.90;;;;;;5035329;28;20840;-73
2023/09/08 01:55:17;;;;;;;8.53;7.83;;;19.10;99.90;;;;;;5035420;28;20903;-73
2023/09/08 01:57:46;;;;;;;9.13;8.33;;;19.10;99.90;;;;;;5034304;28;20829;-73
2023/09/08 02:00:17;;;;;;;10.23;9.33;;;19.00;99.90;;;;;;5033994;28;20470;-73
2023/09/08 02:02:45;;;;;;;9.40;8.47;;;19.00;99.90;;;;;;5035869;28;20430;-73
2023/09/08 02:05:13;;;;;;;8.73;7.93;;;19.00;99.90;;;;;;5033723;28;20478;-73
2023/09/08 02:07:42;;;;;;;9.27;8.57;;;19.00;99.90;;;;;;5035217;28;20450;-73
2023/09/08 02:10:11;;;;;;;8.43;7.73;;;18.90;99.90;;;;;;5035259;28;20442;-73
2023/09/08 02:12:39;;;;;;;8.90;8.10;;;18.90;99.90;;;;;;5033867;28;20450;-73
2023/09/08 02:15:10;;;;;;;9.40;8.70;;;18.90;99.90;;;;;;5033799;28;20477;-73
2023/09/08 02:17:40;;;;;;;9.90;9.03;;;18.80;99.90;;;;;;5033804;28;20443;-73
2023/09/08 02:20:11;;;;;;;8.63;7.93;;;18.80;99.90;;;;;;5034592;28;20471;-73
2023/09/08 02:22:39;;;;;;;10.17;9.27;;;18.80;99.90;;;;;;5034040;28;20447;-73
2023/09/08 02:25:09;;;;;;;10.00;9.10;;;18.80;99.90;;;;;;5033780;28;20545;-73
2023/09/08 02:27:37;;;;;;;9.70;8.90;;;18.70;99.90;;;;;;5033676;28;20501;-73
2023/09/08 02:30:07;;;;;;;9.70;8.90;;;18.70;99.90;;;;;;5033547;28;20447;-72
2023/09/08 02:32:36;;;;;;;9.60;8.60;;;18.70;99.90;;;;;;5033504;28;20957;-72
2023/09/08 02:35:08;;;;;;;9.27;8.50;;;18.70;99.90;;;;;;5034531;28;20449;-73
2023/09/08 02:37:36;;;;;;;11.23;9.10;;;18.60;99.90;;;;;;5033443;28;20442;-73
2023/09/08 02:40:07;;;;;;;9.87;8.97;;;18.60;99.90;;;;;;5033800;28;20447;-73
2023/09/08 02:42:37;;;;;;;11.07;10.00;;;18.60;99.90;;;;;;5034130;28;20438;-73
2023/09/08 02:45:08;;;;;;;9.03;8.23;;;18.60;99.90;;;;;;5033130;28;20441;-73
2023/09/08 02:47:36;;;;;;;9.60;8.70;;;18.60;99.90;;;;;;5033242;28;20447;-73
2023/09/08 02:50:07;;;;;;;9.93;9.17;;;18.60;99.90;;;;;;5033170;28;20443;-73
2023/09/08 02:52:35;;;;;;;9.93;9.03;;;18.60;99.90;;;;;;5032635;28;20435;-73
2023/09/08 02:55:04;;;;;;;9.33;8.60;;;18.60;99.90;;;;;;5033159;28;20840;-73
2023/09/08 02:57:32;;;;;;;9.50;8.63;;;18.50;99.90;;;;;;5033648;28;20457;-73
2023/09/08 03:00:00;;;;;;;9.33;8.47;;;18.50;99.90;;;;;;5032885;28;20860;-73
2023/09/08 03:02:29;;;;;;;9.30;8.50;;;18.50;99.90;;;;;;5032905;28;20494;-73
2023/09/08 03:04:57;;;;;;;9.10;8.30;;;18.50;99.90;;;;;;5032679;28;20466;-73
2023/09/08 03:07:28;;;;;;;10.13;9.20;;;18.50;99.90;;;;;;5032798;28;20979;-73
2023/09/08 03:09:56;;;;;;;10.50;9.60;;;18.40;99.90;;;;;;5033848;28;20502;-73
2023/09/08 03:12:24;;;;;;;10.50;9.60;;;18.40;99.90;;;;;;5034137;28;20470;-73
2023/09/08 03:14:53;;;;;;;13.07;11.87;;;18.30;99.90;;;;;;5033991;28;20479;-73
2023/09/08 03:17:21;;;;;;;15.20;13.70;;;18.30;99.90;;;;;;5034261;28;20418;-73
2023/09/08 03:19:49;;;;;;;14.53;13.23;;;18.30;99.90;;;;;;5032654;28;20954;-73
2023/09/08 03:22:18;;;;;;;14.43;13.10;;;18.30;99.90;;;;;;5032427;28;20498;-73
2023/09/08 03:24:48;;;;;;;17.40;15.70;;;18.30;99.90;;;;;;5032415;28;20467;-73
2023/09/08 03:27:16;;;;;;;16.03;14.63;;;18.20;99.90;;;;;;5032456;28;20458;-72
2023/09/08 03:29:44;;;;;;;13.97;11.90;;;18.20;99.90;;;;;;5033889;28;20444;-73
2023/09/08 03:32:13;;;;;;;15.47;14.00;;;18.20;99.90;;;;;;5032491;28;20513;-73
2023/09/08 03:34:41;;;;;;;14.47;13.00;;;18.20;99.90;;;;;;5032339;28;20470;-73
2023/09/08 03:37:10;;;;;;;12.00;11.00;;;18.20;99.90;;;;;;5032329;28;20501;-73
2023/09/08 03:39:38;;;;;;;12.83;11.63;;;18.10;99.90;;;;;;5033771;28;20828;-72
2023/09/08 03:42:08;;;;;;;11.23;10.23;;;18.10;99.90;;;;;;5032233;28;21005;-73
2023/09/08 03:44:36;;;;;;;11.00;10.00;;;18.10;99.90;;;;;;5032030;28;20505;-73
2023/09/08 03:47:05;;;;;;;9.70;8.93;;;18.10;99.90;;;;;;5032170;28;20978;-73
2023/09/08 03:49:33;;;;;;;10.40;9.47;;;18.10;99.90;;;;;;5032191;28;20505;-73
2023/09/08 03:52:02;;;;;;;10.47;9.47;;;18.10;99.90;;;;;;5032035;28;20451;-73
2023/09/08 03:54:31;;;;;;;10.57;9.70;;;18.10;99.90;;;;;;5032056;28;20525;-73
2023/09/08 03:56:59;;;;;;;9.50;8.60;;;18.00;99.90;;;;;;5033626;28;20530;-73
2023/09/08 03:59:29;;;;;;;9.70;8.70;;;18.00;99.90;;;;;;5032056;28;20450;-72
2023/09/08 04:01:57;;;;;;;10.10;9.30;;;18.00;99.90;;;;;;5032011;28;20467;-72
2023/09/08 04:04:25;;;;;;;11.20;10.20;;;18.00;99.90;;;;;;5031828;28;20481;-73
2023/09/08 04:06:53;;;;;;;10.03;9.27;;;18.00;99.90;;;;;;5031914;28;20876;-73
2023/09/08 04:09:22;;;;;;;10.40;9.60;;;17.90;99.90;;;;;;5032820;28;20479;-72
2023/09/08 04:11:50;;;;;;;11.07;10.07;;;17.90;99.90;;;;;;5031956;28;20475;-72
2023/09/08 04:14:18;;;;;;;10.70;9.73;;;17.90;99.90;;;;;;5033055;28;20483;-73
2023/09/08 04:16:48;;;;;;;9.47;8.73;;;17.90;99.90;;;;;;5031939;28;20871;-72
2023/09/08 04:19:17;;;;;;;10.40;9.60;;;17.90;99.90;;;;;;5031861;28;20520;-73
2023/09/08 04:21:45;;;;;;;11.37;10.27;;;17.80;99.90;;;;;;5031887;28;21019;-73
2023/09/08 04:24:13;;;;;;;10.53;9.63;;;17.80;99.90;;;;;;5033254;28;20451;-73
2023/09/08 04:26:41;;;;;;;11.13;10.13;;;17.80;99.90;;;;;;5032172;28;20538;-72
2023/09/08 04:29:09;;;;;;;10.27;9.40;;;17.80;99.90;;;;;;5033500;28;20492;-73
2023/09/08 04:31:38;;;;;;;12.13;11.13;;;17.80;99.90;;;;;;5032473;28;20815;-73
2023/09/08 04:34:07;;;;;;;10.70;9.90;;;17.70;99.90;;;;;;5033200;28;20458;-73
2023/09/08 04:36:36;;;;;;;15.03;10.87;;;17.70;99.90;;;;;;5032098;28;20506;-72
2023/09/08 04:39:04;;;;;;;10.30;9.50;;;17.70;99.90;;;;;;5031972;28;20916;-72
2023/09/08 04:41:33;;;;;;;10.67;9.87;;;17.70;99.90;;;;;;5033483;28;20467;-73
2023/09/08 04:44:01;;;;;;;11.33;10.13;;;17.70;99.90;;;;;;5031946;28;20470;-72
2023/09/08 04:46:29;;;;;;;10.67;9.83;;;17.70;99.90;;;;;;5031720;28;20523;-72
2023/09/08 04:48:57;;;;;;;11.13;10.10;;;17.60;99.90;;;;;;5032907;28;20442;-73
2023/09/08 04:51:27;;;;;;;10.53;9.60;;;17.60;99.90;;;;;;5032985;28;20900;-72
2023/09/08 04:53:55;;;;;;;10.30;9.40;;;17.70;99.90;;;;;;5031415;28;20463;-73
2023/09/08 04:56:23;;;;;;;10.47;9.57;;;17.60;99.90;;;;;;5031525;28;20461;-72
2023/09/08 04:58:52;;;;;;;11.20;10.20;;;17.60;99.90;;;;;;5033067;28;20463;-72
2023/09/08 05:01:21;;;;;;;9.83;8.93;;;17.60;99.90;;;;;;5031599;28;20433;-72
2023/09/08 05:03:49;;;;;;;10.90;10.10;;;17.60;99.90;;;;;;5031220;28;20470;-73
2023/09/08 05:06:19;;;;;;;10.47;9.67;;;17.50;99.90;;;;;;5031532;28;20443;-72
2023/09/08 05:08:49;;;;;;;13.20;12.00;;;17.60;99.90;;;;;;5031471;28;20425;-73
2023/09/08 05:11:19;;;;;;;12.30;11.10;;;17.50;99.90;;;;;;5031467;28;20439;-72
2023/09/08 05:13:47;;;;;;;12.07;10.80;;;17.50;99.90;;;;;;5031230;28;20438;-72
2023/09/08 05:16:18;;;;;;;11.80;10.60;;;17.50;99.90;;;;;;5033297;28;20795;-73
2023/09/08 05:18:51;;;;;;;12.17;11.17;;;17.50;99.90;;;;;;5034963;28;20475;-73
2023/09/08 05:21:20;;;;;;;12.60;11.60;;;17.50;99.90;;;;;;5034756;28;20449;-73
2023/09/08 05:23:49;;;;;;;11.57;10.47;;;17.50;99.90;;;;;;5034734;28;20817;-72
2023/09/08 05:26:17;;;;;;;11.53;10.53;;;17.50;99.90;;;;;;5034627;28;20789;-72
2023/09/08 05:28:46;;;;;;;11.00;10.00;;;17.50;99.90;;;;;;5034697;28;20426;-73
2023/09/08 05:31:14;;;;;;;11.33;10.23;;;17.50;99.90;;;;;;5036097;28;20420;-73
2023/09/08 05:33:42;;;;;;;11.10;10.10;;;17.50;99.90;;;;;;5034497;28;20509;-73
2023/09/08 05:36:11;;;;;;;10.73;9.93;;;17.50;99.90;;;;;;5034656;28;20799;-73
2023/09/08 05:38:43;;;;;;;12.07;11.07;;;17.50;99.90;;;;;;5035035;28;20463;-73
2023/09/08 05:41:14;;;;;;;11.53;10.53;;;17.40;99.90;;;;;;5035780;28;20527;-73
2023/09/08 05:43:42;;;;;;;11.63;10.73;;;17.50;99.90;;;;;;5034521;28;20457;-72
2023/09/08 05:46:12;;;;;;;11.50;10.40;;;17.50;99.90;;;;;;5034416;28;20803;-72
2023/09/08 05:48:42;;;;;;;10.20;9.30;;;17.50;99.90;;;;;;5034475;28;20484;-72
2023/09/08 05:51:10;;;;;;;11.63;10.50;;;17.50;99.90;;;;;;5034407;28;20528;-72
2023/09/08 05:53:40;;;;;;;11.80;10.90;;;17.50;99.90;;;;;;5034385;28;20886;-73
2023/09/08 05:56:08;;;;;;;11.97;10.97;;;17.50;99.90;;;;;;5034246;28;20453;-73
2023/09/08 05:58:39;;;;;;;15.40;14.00;;;17.50;99.90;;;;;;5034278;28;20491;-72
2023/09/08 06:01:08;;;;;;;17.33;15.53;;;17.50;99.90;;;;;;5034163;28;20425;-72
2023/09/08 06:03:36;;;;;;;23.20;20.10;;;17.50;99.90;;;;;;5034370;28;20556;-73
2023/09/08 06:06:05;;;;;;;18.80;16.83;;;17.50;99.90;;;;;;5034350;28;20421;-73
2023/09/08 06:08:33;;;;;;;16.50;14.90;;;17.50;99.90;;;;;;5034502;28;20451;-72
2023/09/08 06:11:02;;;;;;;13.40;12.10;;;17.60;99.90;;;;;;5034242;28;20522;-72
2023/09/08 06:13:33;;;;;;;14.20;12.90;;;17.70;99.90;;;;;;5034071;28;20527;-72
2023/09/08 06:16:02;;;;;;;12.87;11.77;;;17.80;99.90;;;;;;5033634;28;20971;-72
2023/09/08 06:18:31;;;;;;;12.33;11.07;;;17.90;99.90;;;;;;5034038;28;20459;-73
2023/09/08 06:21:00;;;;;;;12.13;11.03;;;18.00;99.90;;;;;;5034154;28;20508;-73
2023/09/08 06:23:29;;;;;;;11.80;10.80;;;18.20;99.90;;;;;;5035025;28;20461;-73
2023/09/08 06:25:59;;;;;;;11.67;10.57;;;18.30;99.90;;;;;;5033868;28;20439;-72
2023/09/08 06:28:31;;;;;;;14.90;13.43;;;18.40;99.90;;;;;;5032831;28;20443;-73
2023/09/08 06:30:59;;;;;;;12.37;11.27;;;18.60;99.90;;;;;;5034930;28;20431;-73
2023/09/08 06:33:28;;;;;;;10.47;9.57;;;18.80;99.90;;;;;;5035021;28;20969;-72
2023/09/08 06:35:57;;;;;;;11.80;10.70;;;18.90;99.90;;;;;;5034979;28;20441;-73
2023/09/08 06:38:25;;;;;;;10.97;9.87;;;19.00;99.90;;;;;;5033493;28;20433;-72
2023/09/08 06:40:53;;;;;;;10.77;9.90;;;19.10;99.90;;;;;;5033503;28;20861;-73
2023/09/08 06:43:22;;;;;;;11.40;10.40;;;19.30;99.90;;;;;;5034621;28;20852;-73
2023/09/08 06:46:01;;;;;;;11.17;10.17;;;19.40;99.90;;;;;;5033481;28;20450;-73
2023/09/08 06:48:31;;;;;;;12.33;10.47;;;19.50;99.90;;;;;;5033416;28;20870;-73
2023/09/08 06:51:00;;;;;;;11.40;10.23;;;19.60;99.90;;;;;;5033461;28;20439;-73
2023/09/08 06:53:28;;;;;;;11.43;10.43;;;19.70;99.90;;;;;;5033241;28;20529;-73
2023/09/08 06:55:56;;;;;;;10.40;9.50;;;19.80;99.90;;;;;;5033221;28;20447;-72
2023/09/08 06:58:25;;;;;;;12.50;11.33;;;19.90;99.90;;;;;;5033235;28;20447;-73
2023/09/08 07:00:55;;;;;;;12.10;10.90;;;20.00;99.90;;;;;;5033498;28;20538;-72
2023/09/08 07:03:24;;;;;;;11.87;10.87;;;20.10;99.90;;;;;;5033589;28;20483;-73
2023/09/08 07:05:54;;;;;;;10.40;9.40;;;20.20;99.90;;;;;;5033402;28;20443;-72
2023/09/08 07:08:24;;;;;;;10.63;9.57;;;20.20;99.90;;;;;;5033736;28;20522;-72
2023/09/08 07:10:53;;;;;;;12.93;10.77;;;20.30;99.90;;;;;;5033456;28;20505;-72
2023/09/08 07:13:22;;;;;;;13.10;9.90;;;20.30;99.90;;;;;;5033203;28;20459;-72
2023/09/08 07:15:51;;;;;;;11.90;10.30;;;20.30;99.90;;;;;;5033045;28;20450;-73
2023/09/08 07:18:19;;;;;;;10.63;9.63;;;20.30;99.90;;;;;;5033138;28;20447;-72
2023/09/08 07:20:48;;;;;;;12.13;10.83;;;20.30;99.90;;;;;;5034282;28;20454;-72
2023/09/08 07:23:19;;;;;;;9.83;8.70;;;20.30;99.90;;;;;;5032584;28;20475;-72
2023/09/08 07:25:48;;;;;;;12.30;10.20;;;20.30;99.90;;;;;;5032838;28;20542;-72
2023/09/08 07:28:18;;;;;;;11.33;10.33;;;20.30;99.90;;;;;;5032828;28;20462;-73
2023/09/08 07:30:49;;;;;;;12.50;11.13;;;20.30;99.90;;;;;;5032606;28;20434;-72
2023/09/08 07:33:19;;;;;;;12.10;11.00;;;20.30;99.90;;;;;;5032637;28;20463;-72
2023/09/08 07:35:48;;;;;;;11.47;10.43;;;20.30;99.90;;;;;;5033262;28;20479;-72
2023/09/08 07:38:16;;;;;;;11.53;10.40;;;20.30;99.90;;;;;;5032260;28;20450;-72
2023/09/08 07:40:45;;;;;;;10.27;9.40;;;20.30;99.90;;;;;;5032615;28;20957;-73
2023/09/08 07:43:15;;;;;;;10.80;9.90;;;20.40;99.90;;;;;;5033780;28;20841;-72
2023/09/08 07:45:44;;;;;;;10.47;9.53;;;20.40;99.90;;;;;;5032436;28;20573;-72
2023/09/08 07:48:13;;;;;;;12.40;10.83;;;20.40;99.90;;;;;;5034115;28;20471;-72
2023/09/08 07:50:41;;;;;;;10.83;9.73;;;20.50;99.90;;;;;;5032230;28;20964;-73
2023/09/08 07:53:09;;;;;;;10.40;9.50;;;20.60;99.90;;;;;;5033458;28;20431;-72
2023/09/08 07:55:38;;;;;;;10.90;9.80;;;20.70;99.90;;;;;;5033539;28;20838;-72
2023/09/08 07:58:08;;;;;;;21.30;13.03;;;20.80;99.90;;;;;;5033742;28;20541;-75
2023/09/08 08:00:37;;;;;;;14.87;12.77;;;20.90;99.90;;;;;;5033729;28;20447;-74
2023/09/08 08:03:07;;;;;;;10.97;9.90;;;21.00;99.90;;;;;;5033882;28;20439;-74
2023/09/08 08:05:35;;;;;;;9.30;8.10;;;21.10;99.90;;;;;;5033500;28;20794;-74
2023/09/08 08:08:03;;;;;;;10.00;9.10;;;21.30;99.90;;;;;;5033294;28;20446;-74
2023/09/08 08:10:32;;;;;;;9.93;8.90;;;21.40;99.90;;;;;;5033815;28;20848;-73
2023/09/08 08:13:00;;;;;;;10.40;9.37;;;21.50;99.90;;;;;;5032012;28;20438;-74
2023/09/08 08:15:38;;;;;;;16.23;12.57;;;21.60;99.90;;;;;;5033483;28;20435;-73
2023/09/08 08:18:07;;;;;;;10.63;9.60;;;21.70;99.90;;;;;;5032881;28;20811;-75
2023/09/08 08:20:35;;;;;;;11.23;10.23;;;21.80;99.90;;;;;;5033571;28;20873;-74
2023/09/08 08:23:04;;;;;;;12.53;10.10;;;21.90;99.90;;;;;;5033555;28;20443;-74
2023/09/08 08:25:33;;;;;;;9.47;8.57;;;22.00;99.90;;;;;;5033738;28;20435;-74
2023/09/08 08:28:02;;;;;;;10.10;9.10;;;22.10;99.90;;;;;;5032220;28;20533;-74
2023/09/08 08:30:32;;;;;;;9.43;8.50;;;22.20;99.90;;;;;;5033857;28;20501;-74
2023/09/08 08:33:01;;;;;;;9.60;8.80;;;22.30;99.90;;;;;;5033808;28;20489;-73
2023/09/08 08:35:30;;;;;;;8.97;8.17;;;22.40;99.90;;;;;;5032389;28;20447;-74
2023/09/08 08:37:59;;;;;;;16.60;14.87;;;22.50;99.90;;;;;;5033115;28;20437;-74
2023/09/08 08:40:28;;;;;;;12.17;11.10;;;22.60;99.90;;;;;;5031876;28;20455;-74
2023/09/08 08:42:57;;;;;;;10.43;9.43;;;22.70;99.90;;;;;;5031920;28;20435;-74
2023/09/08 08:45:31;;;;;;;9.90;9.00;;;22.70;99.90;;;;;;5033377;28;21059;-74
2023/09/08 08:48:00;;;;;;;9.13;8.33;;;22.90;99.90;;;;;;5033904;28;20435;-74
2023/09/08 08:50:30;;;;;;;9.67;8.00;;;22.90;99.90;;;;;;5034766;28;20434;-74
2023/09/08 08:52:59;;;;;;;10.70;9.60;;;23.00;99.90;;;;;;5036833;28;20503;-74
2023/09/08 08:55:29;;;;;;;11.67;8.97;;;23.10;99.90;;;;;;5036642;28;20960;-74
2023/09/08 08:58:04;;;;;;;10.10;8.20;;;23.20;99.90;;;;;;5037018;28;20472;-74
2023/09/08 09:00:35;;;;;;;9.10;8.27;;;23.30;99.90;;;;;;5037029;28;20510;-74
2023/09/08 09:03:08;;;;;;;8.00;7.30;;;23.40;99.90;;;;;;5036755;28;20422;-75
2023/09/08 09:05:44;;;;;;;8.90;8.17;;;23.50;99.90;;;;;;5036520;28;20478;-74
2023/09/08 09:08:33;;;;;;;8.00;7.30;;;23.60;99.90;;;;;;5036632;28;20423;-74
2023/09/08 09:11:02;;;;;;;9.27;8.10;;;23.60;99.90;;;;;;5037208;28;20441;-75
2023/09/08 09:13:30;;;;;;;9.47;8.47;;;23.70;99.90;;;;;;5037300;28;20450;-75
2023/09/08 09:16:03;;;;;;;9.57;8.70;;;23.80;99.90;;;;;;5037349;28;20442;-75
2023/09/08 09:18:32;;;;;;;10.20;7.90;;;23.90;99.90;;;;;;5035796;28;20445;-75
2023/09/08 09:21:02;;;;;;;8.57;7.87;;;24.00;99.90;;;;;;5037094;28;20446;-75
2023/09/08 09:23:31;;;;;;;8.83;7.80;;;24.00;99.90;;;;;;5037197;28;20450;-75
2023/09/08 09:26:00;;;;;;;9.07;8.27;;;24.20;99.90;;;;;;5036577;28;20906;-75
2023/09/08 09:28:30;;;;;;;8.90;7.87;;;24.30;99.90;;;;;;5035682;28;21037;-75
2023/09/08 09:30:59;;;;;;;8.43;7.63;;;24.30;99.90;;;;;;5037207;28;20437;-75
2023/09/08 09:33:30;;;;;;;9.53;7.70;;;24.40;99.90;;;;;;5036531;28;20442;-75
2023/09/08 09:36:00;;;;;;;7.77;7.10;;;24.50;99.90;;;;;;5035694;28;20438;-75
2023/09/08 09:38:28;;;;;;;8.47;7.60;;;24.60;99.90;;;;;;5035886;28;20930;-75
2023/09/08 09:40:58;;;;;;;7.97;7.30;;;24.70;99.90;;;;;;5036504;28;20505;-75
2023/09/08 09:43:29;;;;;;;8.50;7.70;;;24.70;99.90;;;;;;5036560;28;20516;-75
2023/09/08 09:45:58;;;;;;;9.03;8.20;;;24.90;99.90;;;;;;5036882;28;20462;-75
2023/09/08 09:48:26;;;;;;;9.03;8.20;;;24.90;99.90;;;;;;5036591;28;20454;-75
2023/09/08 09:50:54;;;;;;;9.57;7.50;;;25.00;99.90;;;;;;5036706;28;20808;-75
2023/09/08 09:53:24;;;;;;;7.97;7.27;;;25.10;99.90;;;;;;5036890;28;20477;-75
2023/09/08 09:55:53;;;;;;;8.20;7.47;;;25.20;99.90;;;;;;5035106;28;20458;-75
2023/09/08 09:58:22;;;;;;;8.50;7.73;;;25.30;99.90;;;;;;5034960;28;20455;-75
2023/09/08 10:00:51;;;;;;;8.23;7.53;;;25.30;99.90;;;;;;5036361;28;20446;-76
2023/09/08 10:03:20;;;;;;;8.90;8.10;;;25.40;99.90;;;;;;5036226;28;21000;-75
2023/09/08 10:05:49;;;;;;;7.37;6.70;;;25.50;99.90;;;;;;5036007;28;20477;-75
2023/09/08 10:08:18;;;;;;;7.50;6.80;;;25.60;99.90;;;;;;5035296;28;20480;-76
2023/09/08 10:10:50;;;;;;;9.30;8.30;;;25.60;99.90;;;;;;5034657;28;20447;-75
2023/09/08 10:13:24;;;;;;;8.20;7.50;;;25.70;99.90;;;;;;5034843;28;20459;-75
2023/09/08 10:15:57;;;;;;;8.53;6.83;;;25.80;99.90;;;;;;5036065;28;20450;-76
2023/09/08 10:18:25;;;;;;;8.37;6.87;;;25.90;99.90;;;;;;5034758;28;20447;-75
2023/09/08 10:20:58;;;;;;;8.10;7.40;;;25.90;99.90;;;;;;5035974;28;20479;-75
2023/09/08 10:23:34;;;;;;;8.47;7.60;;;26.00;99.90;;;;;;5036251;28;20473;-75
2023/09/08 10:26:09;;;;;;;7.90;7.30;;;26.10;99.90;;;;;;5034694;28;20467;-76
2023/09/08 10:28:38;;;;;;;8.73;7.93;;;26.10;99.90;;;;;;5035956;28;20977;-75
2023/09/08 10:31:08;;;;;;;7.00;6.40;;;26.20;99.90;;;;;;5035930;28;20530;-75
2023/09/08 10:33:40;;;;;;;8.40;7.50;;;26.30;99.90;;;;;;5035151;28;20545;-76
2023/09/08 10:36:10;;;;;;;8.40;6.83;;;26.30;99.90;;;;;;5033468;28;20453;-76
2023/09/08 10:38:41;;;;;;;7.03;6.33;;;26.40;99.90;;;;;;5033483;28;20439;-76
2023/09/08 10:41:35;;;;;;;7.90;7.17;;;26.40;99.90;;;;;;5033375;28;20435;-76
2023/09/08 10:44:08;;;;;;;8.27;7.57;;;26.50;99.90;;;;;;5020098;28;20478;-76
2023/09/08 10:46:38;;;;;;;6.93;6.27;;;26.50;99.90;;;;;;5034805;28;20549;-76
2023/09/08 10:49:08;;;;;;;7.57;6.93;;;26.60;99.90;;;;;;5035378;28;20450;-76
2023/09/08 10:51:37;;;;;;;7.50;6.80;;;26.70;99.90;;;;;;5034457;28;20481;-76
2023/09/08 10:54:06;;;;;;;7.60;7.00;;;26.80;99.90;;;;;;5034406;28;20447;-76
2023/09/08 10:56:55;;;;;;;7.60;7.00;;;26.80;99.90;;;;;;5034638;28;20450;-76
2023/09/08 10:59:28;;;;;;;7.60;7.00;;;26.90;99.90;;;;;;5033073;28;20439;-76
2023/09/08 11:01:56;;;;;;;7.50;6.80;;;26.90;99.90;;;;;;5034375;28;20427;-76
2023/09/08 11:04:26;;;;;;;7.87;6.13;;;27.00;99.90;;;;;;5034214;28;20470;-75
2023/09/08 11:06:57;;;;;;;6.87;6.17;;;27.00;99.90;;;;;;5032860;28;20566;-76
2023/09/08 11:09:25;;;;;;;6.93;6.33;;;27.10;99.90;;;;;;5033839;28;20513;-76
2023/09/08 11:11:56;;;;;;;6.70;6.10;;;27.10;99.90;;;;;;5034070;28;20454;-76
2023/09/08 11:14:27;;;;;;;7.40;6.57;;;27.20;99.90;;;;;;5033522;28;20553;-76
2023/09/08 11:16:55;;;;;;;6.47;5.97;;;27.20;99.90;;;;;;5034255;28;20419;-76
2023/09/08 11:19:24;;;;;;;6.67;6.07;;;27.30;99.90;;;;;;5032950;28;20542;-76
2023/09/08 11:21:52;;;;;;;7.80;6.70;;;27.30;99.90;;;;;;5034453;28;20462;-76
2023/09/08 11:24:21;;;;;;;7.17;6.57;;;27.40;99.90;;;;;;5032832;28;20837;-76
2023/09/08 11:26:51;;;;;;;6.70;6.10;;;27.50;99.90;;;;;;5033734;28;20470;-76
2023/09/08 11:29:20;;;;;;;7.93;6.50;;;27.50;99.90;;;;;;5033764;28;20529;-76
2023/09/08 11:31:53;;;;;;;6.37;5.87;;;27.50;99.90;;;;;;5033694;28;20442;-76
2023/09/08 11:34:25;;;;;;;6.50;5.90;;;27.60;99.90;;;;;;5032411;28;20892;-76
2023/09/08 11:36:53;;;;;;;7.60;6.03;;;27.60;99.90;;;;;;5032480;28;20482;-76
2023/09/08 11:39:25;;;;;;;7.00;6.33;;;27.60;99.90;;;;;;5032373;28;20438;-76
2023/09/08 11:41:53;;;;;;;6.03;5.53;;;27.70;99.90;;;;;;5032331;28;20446;-76
2023/09/08 11:44:24;;;;;;;6.40;5.90;;;27.80;99.90;;;;;;5033434;28;20490;-76
2023/09/08 11:46:53;;;;;;;6.33;5.73;;;27.70;99.90;;;;;;5032113;28;20482;-76
2023/09/08 11:49:23;;;;;;;7.00;6.40;;;27.80;99.90;;;;;;5033550;28;20434;-76
2023/09/08 11:51:51;;;;;;;7.07;6.40;;;27.80;99.90;;;;;;5033527;28;20435;-76
2023/09/08 11:54:19;;;;;;;7.00;6.40;;;27.90;99.90;;;;;;5032046;28;20524;-76
2023/09/08 11:56:48;;;;;;;6.33;5.77;;;27.90;99.90;;;;;;5033302;28;20459;-76
2023/09/08 11:59:16;;;;;;;7.13;6.53;;;27.90;99.90;;;;;;5032119;28;20443;-76
2023/09/08 12:01:46;;;;;;;6.53;6.03;;;28.00;99.90;;;;;;5032082;28;20505;-77
2023/09/08 12:04:20;;;;;;;7.17;6.57;;;28.00;99.90;;;;;;5031832;28;20486;-77
2023/09/08 12:06:49;;;;;;;6.37;5.77;;;28.10;99.90;;;;;;5033432;28;20550;-77
2023/09/08 12:09:17;;;;;;;8.43;6.17;;;28.10;99.90;;;;;;5033467;28;20489;-76
2023/09/08 12:11:45;;;;;;;7.40;6.23;;;28.10;99.90;;;;;;5033159;28;20980;-77
2023/09/08 12:14:16;;;;;;;6.60;6.10;;;28.20;99.90;;;;;;5033063;28;20550;-77
2023/09/08 12:16:46;;;;;;;6.80;6.20;;;28.20;99.90;;;;;;5033702;28;20435;-77
2023/09/08 12:19:30;;;;;;;7.43;6.83;;;28.30;99.90;;;;;;5033570;28;20984;-76
2023/09/08 12:22:04;;;;;;;9.27;8.47;;;28.30;99.90;;;;;;5033284;28;20457;-77
2023/09/08 12:24:57;;;;;;;9.20;8.50;;;28.30;99.90;;;;;;5031749;28;21112;-76
2023/09/08 12:27:25;;;;;;;7.90;7.20;;;28.40;99.90;;;;;;5037365;28;21036;-77
2023/09/08 12:29:55;;;;;;;8.40;6.77;;;28.40;99.90;;;;;;5037097;28;20514;-77
2023/09/08 12:32:26;;;;;;;7.07;6.50;;;28.40;99.90;;;;;;5035816;28;20443;-76
2023/09/08 12:34:54;;;;;;;7.13;6.43;;;28.50;99.90;;;;;;5037029;28;20516;-76
2023/09/08 12:37:23;;;;;;;7.00;6.10;;;28.50;99.90;;;;;;5035773;28;20456;-77
2023/09/08 12:39:51;;;;;;;6.83;5.80;;;28.50;99.90;;;;;;5036899;28;20458;-76
2023/09/08 12:42:20;;;;;;;6.77;6.17;;;28.60;99.90;;;;;;5036867;28;20443;-77
2023/09/08 12:44:49;;;;;;;6.10;5.60;;;28.60;99.90;;;;;;5037004;28;20462;-77
2023/09/08 12:47:18;;;;;;;7.17;6.57;;;28.60;99.90;;;;;;5036748;28;20856;-77
2023/09/08 12:49:47;;;;;;;7.53;6.87;;;28.70;99.90;;;;;;5036769;28;20445;-77
2023/09/08 12:52:15;;;;;;;7.17;6.57;;;28.70;99.90;;;;;;5036671;28;20435;-76
2023/09/08 12:54:44;;;;;;;6.90;6.30;;;28.80;99.90;;;;;;5036461;28;20461;-77